sensor_id;sensor_type;location;lat;lon;timestamp;temperature;humidity
5023;DHT22;2530;47.990;7.866;2023-07-31T00:02:13;15.00;99.90
5023;DHT22;2530;47.990;7.866;2023-07-31T00:04:38;15.00;99.90
5023;DHT22;2530;47.990;7.866;2023-07-31T00:07:04;15.00;99.90
5023;DHT22;2530;47.990;7.866;2023-07-31T00:09:32;14.90;99.90
5023;DHT22;2530;47.990;7.866;2023-07-31T00:11:58;15.00;99.90
5023;DHT22;2530;47.990;7.866;2023-07-31T00:14:24;15.00;99.90
5023;DHT22;2530;47.990;7.866;2023-07-31T00:16:49;14.80;99.90
5023;DHT22;2530;47.990;7.866;2023-07-31T00:19:15;14.90;99.90
5023;DHT22;2530;47.990;7.866;2023-07-31T00:21:41;14.80;99.90
5023;DHT22;2530;47.990;7.866;2023-07-31T00:24:06;14.80;99.90
5023;DHT22;2530;47.990;7.866;2023-07-31T00:26:32;14.80;99.90
5023;DHT22;2530;47.990;7.866;2023-07-31T00:28:57;14.70;99.90
5023;DHT22;2530;47.990;7.866;2023-07-31T00:31:23;14.70;99.90
5023;DHT22;2530;47.990;7.866;2023-07-31T00:33:48;14.70;99.90
5023;DHT22;2530;47.990;7.866;2023-07-31T00:36:14;14.70;99.90
5023;DHT22;2530;47.990;7.866;2023-07-31T00:38:39;14.70;99.90
5023;DHT22;2530;47.990;7.866;2023-07-31T00:41:05;14.80;99.90
5023;DHT22;2530;47.990;7.866;2023-07-31T00:43:30;14.80;99.90
5023;DHT22;2530;47.990;7.866;2023-07-31T00:45:56;14.80;99.90
5023;DHT22;2530;47.990;7.866;2023-07-31T00:48:22;14.80;99.90
5023;DHT22;2530;47.990;7.866;2023-07-31T00:50:48;14.70;99.90
5023;DHT22;2530;47.990;7.866;2023-07-31T00:53:13;14.80;99.90
5023;DHT22;2530;47.990;7.866;2023-07-31T00:55:39;14.70;99.90
5023;DHT22;2530;47.990;7.866;2023-07-31T00:58:05;14.70;99.90
5023;DHT22;2530;47.990;7.866;2023-07-31T01:00:30;14.90;99.90
5023;DHT22;2530;47.990;7.866;2023-07-31T01:02:56;14.80;99.90
5023;DHT22;2530;47.990;7.866;2023-07-31T01:08:42;14.80;99.90
5023;DHT22;2530;47.990;7.866;2023-07-31T01:11:24;14.70;99.90
5023;DHT22;2530;47.990;7.866;2023-07-31T01:13:51;14.80;99.90
5023;DHT22;2530;47.990;7.866;2023-07-31T01:16:16;14.60;99.90
5023;DHT22;2530;47.990;7.866;2023-07-31T01:18:42;14.60;99.90
5023;DHT22;2530;47.990;7.866;2023-07-31T01:21:28;14.70;99.90
5023;DHT22;2530;47.990;7.866;2023-07-31T01:24:20;14.60;99.90
5023;DHT22;2530;47.990;7.866;2023-07-31T01:27:01;14.60;99.90
5023;DHT22;2530;47.990;7.866;2023-07-31T01:29:47;14.50;99.90
5023;DHT22;2530;47.990;7.866;2023-07-31T01:32:14;14.50;99.90
5023;DHT22;2530;47.990;7.866;2023-07-31T01:34:42;14.40;99.90
5023;DHT22;2530;47.990;7.866;2023-07-31T01:37:08;14.40;99.90
5023;DHT22;2530;47.990;7.866;2023-07-31T01:39:33;14.50;99.90
5023;DHT22;2530;47.990;7.866;2023-07-31T01:41:59;14.50;99.90
5023;DHT22;2530;47.990;7.866;2023-07-31T01:44:24;14.40;99.90
5023;DHT22;2530;47.990;7.866;2023-07-31T01:46:50;14.50;99.90
5023;DHT22;2530;47.990;7.866;2023-07-31T01:49:15;14.50;99.90
5023;DHT22;2530;47.990;7.866;2023-07-31T01:51:41;14.30;99.90
5023;DHT22;2530;47.990;7.866;2023-07-31T01:54:06;14.30;99.90
5023;DHT22;2530;47.990;7.866;2023-07-31T01:56:32;14.30;99.90
5023;DHT22;2530;47.990;7.866;2023-07-31T01:58:57;14.20;99.90
5023;DHT22;2530;47.990;7.866;2023-07-31T02:01:23;14.30;99.90
5023;DHT22;2530;47.990;7.866;2023-07-31T02:03:49;14.40;99.90
5023;DHT22;2530;47.990;7.866;2023-07-31T02:06:14;14.20;99.90
5023;DHT22;2530;47.990;7.866;2023-07-31T02:08:40;14.30;99.90
5023;DHT22;2530;47.990;7.866;2023-07-31T02:11:05;14.20;99.90
5023;DHT22;2530;47.990;7.866;2023-07-31T02:13:31;14.20;99.90
5023;DHT22;2530;47.990;7.866;2023-07-31T02:15:56;14.20;99.90
5023;DHT22;2530;47.990;7.866;2023-07-31T02:18:22;14.20;99.90
5023;DHT22;2530;47.990;7.866;2023-07-31T02:20:52;14.20;99.90
5023;DHT22;2530;47.990;7.866;2023-07-31T02:23:21;14.00;99.90
5023;DHT22;2530;47.990;7.866;2023-07-31T02:25:46;14.10;99.90
5023;DHT22;2530;47.990;7.866;2023-07-31T02:28:12;14.20;99.90
5023;DHT22;2530;47.990;7.866;2023-07-31T02:30:38;14.10;99.90
5023;DHT22;2530;47.990;7.866;2023-07-31T02:33:04;14.00;99.90
5023;DHT22;2530;47.990;7.866;2023-07-31T02:35:30;14.10;99.90
5023;DHT22;2530;47.990;7.866;2023-07-31T02:37:55;14.20;99.90
5023;DHT22;2530;47.990;7.866;2023-07-31T02:40:21;14.20;99.90
5023;DHT22;2530;47.990;7.866;2023-07-31T02:42:46;14.20;99.90
5023;DHT22;2530;47.990;7.866;2023-07-31T02:45:12;14.10;99.90
5023;DHT22;2530;47.990;7.866;2023-07-31T02:47:38;14.20;99.90
5023;DHT22;2530;47.990;7.866;2023-07-31T02:50:04;14.10;99.90
5023;DHT22;2530;47.990;7.866;2023-07-31T02:52:30;14.00;99.90
5023;DHT22;2530;47.990;7.866;2023-07-31T02:54:55;14.00;99.90
5023;DHT22;2530;47.990;7.866;2023-07-31T02:57:21;13.90;99.90
5023;DHT22;2530;47.990;7.866;2023-07-31T02:59:46;14.00;99.90
5023;DHT22;2530;47.990;7.866;2023-07-31T03:02:12;13.80;99.90
5023;DHT22;2530;47.990;7.866;2023-07-31T03:04:38;14.00;99.90
5023;DHT22;2530;47.990;7.866;2023-07-31T03:07:04;13.90;99.90
5023;DHT22;2530;47.990;7.866;2023-07-31T03:09:29;13.90;99.90
5023;DHT22;2530;47.990;7.866;2023-07-31T03:11:55;13.80;99.90
5023;DHT22;2530;47.990;7.866;2023-07-31T03:14:20;13.90;99.90
5023;DHT22;2530;47.990;7.866;2023-07-31T03:16:46;13.90;99.90
5023;DHT22;2530;47.990;7.866;2023-07-31T03:19:11;13.80;99.90
5023;DHT22;2530;47.990;7.866;2023-07-31T03:21:37;13.50;99.90
5023;DHT22;2530;47.990;7.866;2023-07-31T03:24:03;13.80;99.90
5023;DHT22;2530;47.990;7.866;2023-07-31T03:26:31;14.00;99.90
5023;DHT22;2530;47.990;7.866;2023-07-31T03:28:56;13.90;99.90
5023;DHT22;2530;47.990;7.866;2023-07-31T03:31:22;13.80;99.90
5023;DHT22;2530;47.990;7.866;2023-07-31T03:33:47;13.80;99.90
5023;DHT22;2530;47.990;7.866;2023-07-31T03:36:13;13.80;99.90
5023;DHT22;2530;47.990;7.866;2023-07-31T03:38:38;13.80;99.90
5023;DHT22;2530;47.990;7.866;2023-07-31T03:41:04;13.70;99.90
5023;DHT22;2530;47.990;7.866;2023-07-31T03:43:31;13.80;99.90
5023;DHT22;2530;47.990;7.866;2023-07-31T03:45:59;13.80;99.90
5023;DHT22;2530;47.990;7.866;2023-07-31T03:48:25;13.80;99.90
5023;DHT22;2530;47.990;7.866;2023-07-31T03:50:50;13.90;99.90
5023;DHT22;2530;47.990;7.866;2023-07-31T03:53:16;14.00;99.90
5023;DHT22;2530;47.990;7.866;2023-07-31T03:55:41;14.00;99.90
5023;DHT22;2530;47.990;7.866;2023-07-31T03:58:07;14.10;99.90
5023;DHT22;2530;47.990;7.866;2023-07-31T04:00:32;14.00;99.90
5023;DHT22;2530;47.990;7.866;2023-07-31T04:02:58;13.80;99.90
5023;DHT22;2530;47.990;7.866;2023-07-31T04:05:24;13.80;99.90
5023;DHT22;2530;47.990;7.866;2023-07-31T04:07:49;13.80;99.90
5023;DHT22;2530;47.990;7.866;2023-07-31T04:10:15;13.80;99.90
5023;DHT22;2530;47.990;7.866;2023-07-31T04:12:40;13.90;99.90
5023;DHT22;2530;47.990;7.866;2023-07-31T04:15:06;13.90;99.90
5023;DHT22;2530;47.990;7.866;2023-07-31T04:17:32;13.80;99.90
5023;DHT22;2530;47.990;7.866;2023-07-31T04:19:57;13.70;99.90
5023;DHT22;2530;47.990;7.866;2023-07-31T04:22:23;13.80;99.90
5023;DHT22;2530;47.990;7.866;2023-07-31T04:24:48;13.80;99.90
5023;DHT22;2530;47.990;7.866;2023-07-31T04:27:14;13.80;99.90
5023;DHT22;2530;47.990;7.866;2023-07-31T04:29:39;14.20;99.90
5023;DHT22;2530;47.990;7.866;2023-07-31T04:32:07;13.80;99.90
5023;DHT22;2530;47.990;7.866;2023-07-31T04:34:33;13.90;99.90
5023;DHT22;2530;47.990;7.866;2023-07-31T04:36:59;13.90;99.90
5023;DHT22;2530;47.990;7.866;2023-07-31T04:39:24;14.10;99.90
5023;DHT22;2530;47.990;7.866;2023-07-31T04:41:50;13.90;99.90
5023;DHT22;2530;47.990;7.866;2023-07-31T04:44:15;14.00;99.90
5023;DHT22;2530;47.990;7.866;2023-07-31T04:46:41;14.00;99.90
5023;DHT22;2530;47.990;7.866;2023-07-31T04:49:06;14.10;99.90
5023;DHT22;2530;47.990;7.866;2023-07-31T04:51:32;14.20;99.90
5023;DHT22;2530;47.990;7.866;2023-07-31T04:53:57;14.10;99.90
5023;DHT22;2530;47.990;7.866;2023-07-31T04:56:23;14.30;99.90
5023;DHT22;2530;47.990;7.866;2023-07-31T04:58:48;14.30;99.90
5023;DHT22;2530;47.990;7.866;2023-07-31T05:01:14;14.30;99.90
5023;DHT22;2530;47.990;7.866;2023-07-31T05:03:39;14.40;99.90
5023;DHT22;2530;47.990;7.866;2023-07-31T05:06:05;14.30;99.90
5023;DHT22;2530;47.990;7.866;2023-07-31T05:08:30;14.20;99.90
5023;DHT22;2530;47.990;7.866;2023-07-31T05:10:56;14.50;99.90
5023;DHT22;2530;47.990;7.866;2023-07-31T05:13:21;14.50;99.90
5023;DHT22;2530;47.990;7.866;2023-07-31T05:15:47;14.60;99.90
5023;DHT22;2530;47.990;7.866;2023-07-31T05:18:14;14.40;99.90
5023;DHT22;2530;47.990;7.866;2023-07-31T05:20:40;14.50;99.90
5023;DHT22;2530;47.990;7.866;2023-07-31T05:23:06;14.60;99.90
5023;DHT22;2530;47.990;7.866;2023-07-31T05:25:32;14.60;99.90
5023;DHT22;2530;47.990;7.866;2023-07-31T05:27:57;14.60;99.90
5023;DHT22;2530;47.990;7.866;2023-07-31T05:30:23;14.60;99.90
5023;DHT22;2530;47.990;7.866;2023-07-31T05:32:48;14.80;99.90
5023;DHT22;2530;47.990;7.866;2023-07-31T05:35:14;14.80;99.90
5023;DHT22;2530;47.990;7.866;2023-07-31T05:37:40;14.80;99.90
5023;DHT22;2530;47.990;7.866;2023-07-31T05:40:06;15.00;99.90
5023;DHT22;2530;47.990;7.866;2023-07-31T05:42:31;15.00;99.90
5023;DHT22;2530;47.990;7.866;2023-07-31T05:44:57;14.90;99.90
5023;DHT22;2530;47.990;7.866;2023-07-31T05:47:22;15.20;99.90
5023;DHT22;2530;47.990;7.866;2023-07-31T05:49:48;15.30;99.90
5023;DHT22;2530;47.990;7.866;2023-07-31T05:52:14;15.30;99.90
5023;DHT22;2530;47.990;7.866;2023-07-31T05:54:41;16.00;99.90
5023;DHT22;2530;47.990;7.866;2023-07-31T05:57:07;16.00;99.90
5023;DHT22;2530;47.990;7.866;2023-07-31T05:59:32;16.50;99.90
5023;DHT22;2530;47.990;7.866;2023-07-31T06:01:58;16.80;99.90
5023;DHT22;2530;47.990;7.866;2023-07-31T06:04:24;16.90;99.90
5023;DHT22;2530;47.990;7.866;2023-07-31T06:06:51;17.00;99.90
5023;DHT22;2530;47.990;7.866;2023-07-31T06:09:16;17.20;99.90
5023;DHT22;2530;47.990;7.866;2023-07-31T06:11:42;17.30;99.90
5023;DHT22;2530;47.990;7.866;2023-07-31T06:14:07;17.40;99.90
5023;DHT22;2530;47.990;7.866;2023-07-31T06:16:33;17.60;99.90
5023;DHT22;2530;47.990;7.866;2023-07-31T06:18:58;17.70;99.90
5023;DHT22;2530;47.990;7.866;2023-07-31T06:21:24;17.70;99.90
5023;DHT22;2530;47.990;7.866;2023-07-31T06:23:49;17.80;99.90
5023;DHT22;2530;47.990;7.866;2023-07-31T06:26:15;17.90;99.90
5023;DHT22;2530;47.990;7.866;2023-07-31T06:28:40;17.90;99.90
5023;DHT22;2530;47.990;7.866;2023-07-31T06:31:06;17.90;99.90
5023;DHT22;2530;47.990;7.866;2023-07-31T06:33:31;17.90;99.90
5023;DHT22;2530;47.990;7.866;2023-07-31T06:35:57;18.00;99.90
5023;DHT22;2530;47.990;7.866;2023-07-31T06:38:25;18.10;99.90
5023;DHT22;2530;47.990;7.866;2023-07-31T06:40:50;18.10;99.90
5023;DHT22;2530;47.990;7.866;2023-07-31T06:43:16;18.20;99.90
5023;DHT22;2530;47.990;7.866;2023-07-31T06:45:41;18.10;99.90
5023;DHT22;2530;47.990;7.866;2023-07-31T06:48:07;18.10;99.90
5023;DHT22;2530;47.990;7.866;2023-07-31T06:50:33;18.20;99.90
5023;DHT22;2530;47.990;7.866;2023-07-31T06:52:59;18.20;99.90
5023;DHT22;2530;47.990;7.866;2023-07-31T06:55:25;18.30;99.90
5023;DHT22;2530;47.990;7.866;2023-07-31T06:57:52;18.30;99.90
5023;DHT22;2530;47.990;7.866;2023-07-31T07:00:19;18.30;99.90
5023;DHT22;2530;47.990;7.866;2023-07-31T07:02:45;18.40;99.90
5023;DHT22;2530;47.990;7.866;2023-07-31T07:05:13;18.40;99.90
5023;DHT22;2530;47.990;7.866;2023-07-31T07:07:39;18.50;99.90
5023;DHT22;2530;47.990;7.866;2023-07-31T07:10:05;18.40;99.90
5023;DHT22;2530;47.990;7.866;2023-07-31T07:12:31;18.40;99.90
5023;DHT22;2530;47.990;7.866;2023-07-31T07:14:57;18.40;99.90
5023;DHT22;2530;47.990;7.866;2023-07-31T07:17:24;18.50;99.90
5023;DHT22;2530;47.990;7.866;2023-07-31T07:19:49;18.20;99.90
5023;DHT22;2530;47.990;7.866;2023-07-31T07:22:15;18.40;99.90
5023;DHT22;2530;47.990;7.866;2023-07-31T07:24:41;18.40;99.90
5023;DHT22;2530;47.990;7.866;2023-07-31T07:27:06;18.50;99.90
5023;DHT22;2530;47.990;7.866;2023-07-31T07:29:34;18.60;99.90
5023;DHT22;2530;47.990;7.866;2023-07-31T07:32:00;18.50;99.90
5023;DHT22;2530;47.990;7.866;2023-07-31T07:34:27;18.50;99.90
5023;DHT22;2530;47.990;7.866;2023-07-31T07:36:53;18.60;99.90
5023;DHT22;2530;47.990;7.866;2023-07-31T07:39:19;18.70;99.90
5023;DHT22;2530;47.990;7.866;2023-07-31T07:41:44;18.70;99.90
5023;DHT22;2530;47.990;7.866;2023-07-31T07:44:10;18.80;99.90
5023;DHT22;2530;47.990;7.866;2023-07-31T07:46:35;18.90;99.90
5023;DHT22;2530;47.990;7.866;2023-07-31T07:49:01;18.90;99.90
5023;DHT22;2530;47.990;7.866;2023-07-31T07:51:26;19.00;99.90
5023;DHT22;2530;47.990;7.866;2023-07-31T07:53:52;19.20;99.90
5023;DHT22;2530;47.990;7.866;2023-07-31T07:56:17;19.40;99.90
5023;DHT22;2530;47.990;7.866;2023-07-31T07:58:43;19.30;99.90
5023;DHT22;2530;47.990;7.866;2023-07-31T08:01:08;19.50;99.90
5023;DHT22;2530;47.990;7.866;2023-07-31T08:03:34;19.50;99.90
5023;DHT22;2530;47.990;7.866;2023-07-31T08:06:00;19.50;99.90
5023;DHT22;2530;47.990;7.866;2023-07-31T08:08:26;19.60;99.90
5023;DHT22;2530;47.990;7.866;2023-07-31T08:10:52;19.50;99.90
5023;DHT22;2530;47.990;7.866;2023-07-31T08:13:17;19.50;99.90
5023;DHT22;2530;47.990;7.866;2023-07-31T08:15:43;19.60;99.90
5023;DHT22;2530;47.990;7.866;2023-07-31T08:18:09;19.60;99.90
5023;DHT22;2530;47.990;7.866;2023-07-31T08:20:35;19.60;99.90
5023;DHT22;2530;47.990;7.866;2023-07-31T08:23:00;19.40;99.90
5023;DHT22;2530;47.990;7.866;2023-07-31T08:25:26;19.50;99.90
5023;DHT22;2530;47.990;7.866;2023-07-31T08:27:52;19.40;99.90
5023;DHT22;2530;47.990;7.866;2023-07-31T08:30:18;19.40;99.90
5023;DHT22;2530;47.990;7.866;2023-07-31T08:32:44;19.60;99.90
5023;DHT22;2530;47.990;7.866;2023-07-31T08:35:10;19.70;99.90
5023;DHT22;2530;47.990;7.866;2023-07-31T08:37:35;19.80;99.90
5023;DHT22;2530;47.990;7.866;2023-07-31T08:40:01;19.70;99.90
5023;DHT22;2530;47.990;7.866;2023-07-31T08:42:27;19.80;99.90
5023;DHT22;2530;47.990;7.866;2023-07-31T08:44:53;19.90;99.90
5023;DHT22;2530;47.990;7.866;2023-07-31T08:47:20;19.90;99.90
5023;DHT22;2530;47.990;7.866;2023-07-31T08:49:47;20.00;99.90
5023;DHT22;2530;47.990;7.866;2023-07-31T08:52:13;20.00;99.90
5023;DHT22;2530;47.990;7.866;2023-07-31T08:54:38;20.10;99.90
5023;DHT22;2530;47.990;7.866;2023-07-31T08:57:05;20.20;99.90
5023;DHT22;2530;47.990;7.866;2023-07-31T08:59:33;20.30;99.90
5023;DHT22;2530;47.990;7.866;2023-07-31T09:02:05;20.30;99.90
5023;DHT22;2530;47.990;7.866;2023-07-31T09:04:32;20.30;99.90
5023;DHT22;2530;47.990;7.866;2023-07-31T09:07:01;20.30;99.90
5023;DHT22;2530;47.990;7.866;2023-07-31T09:09:27;20.40;99.90
5023;DHT22;2530;47.990;7.866;2023-07-31T09:11:52;20.20;99.90
5023;DHT22;2530;47.990;7.866;2023-07-31T09:14:18;20.40;99.90
5023;DHT22;2530;47.990;7.866;2023-07-31T09:16:58;21.10;99.90
5023;DHT22;2530;47.990;7.866;2023-07-31T09:19:32;20.40;99.90
5023;DHT22;2530;47.990;7.866;2023-07-31T09:21:59;20.70;99.90
5023;DHT22;2530;47.990;7.866;2023-07-31T09:24:29;20.50;99.90
5023;DHT22;2530;47.990;7.866;2023-07-31T09:26:56;20.40;99.90
5023;DHT22;2530;47.990;7.866;2023-07-31T09:29:22;20.40;99.90
5023;DHT22;2530;47.990;7.866;2023-07-31T09:31:48;20.40;99.90
5023;DHT22;2530;47.990;7.866;2023-07-31T09:34:14;20.40;99.90
5023;DHT22;2530;47.990;7.866;2023-07-31T09:36:45;20.50;99.90
5023;DHT22;2530;47.990;7.866;2023-07-31T09:39:11;20.40;99.90
5023;DHT22;2530;47.990;7.866;2023-07-31T09:41:45;21.30;99.90
5023;DHT22;2530;47.990;7.866;2023-07-31T09:44:11;20.50;99.90
5023;DHT22;2530;47.990;7.866;2023-07-31T09:46:37;20.60;99.90
5023;DHT22;2530;47.990;7.866;2023-07-31T09:49:11;20.70;99.90
5023;DHT22;2530;47.990;7.866;2023-07-31T09:51:41;20.90;99.90
5023;DHT22;2530;47.990;7.866;2023-07-31T09:54:14;21.00;99.90
5023;DHT22;2530;47.990;7.866;2023-07-31T09:56:46;21.00;99.90
5023;DHT22;2530;47.990;7.866;2023-07-31T09:59:16;21.10;99.90
5023;DHT22;2530;47.990;7.866;2023-07-31T10:01:43;21.10;99.90
5023;DHT22;2530;47.990;7.866;2023-07-31T10:04:10;21.10;99.90
5023;DHT22;2530;47.990;7.866;2023-07-31T10:06:36;21.00;99.90
5023;DHT22;2530;47.990;7.866;2023-07-31T10:09:05;21.10;99.90
5023;DHT22;2530;47.990;7.866;2023-07-31T10:11:37;20.60;99.90
5023;DHT22;2530;47.990;7.866;2023-07-31T10:14:05;21.20;99.90
5023;DHT22;2530;47.990;7.866;2023-07-31T10:16:31;21.30;99.90
5023;DHT22;2530;47.990;7.866;2023-07-31T10:18:57;21.20;99.90
5023;DHT22;2530;47.990;7.866;2023-07-31T10:21:24;21.30;99.90
5023;DHT22;2530;47.990;7.866;2023-07-31T10:23:50;21.40;99.90
5023;DHT22;2530;47.990;7.866;2023-07-31T10:26:19;21.50;99.90
5023;DHT22;2530;47.990;7.866;2023-07-31T10:28:46;21.70;99.90
5023;DHT22;2530;47.990;7.866;2023-07-31T10:31:12;21.50;99.90
5023;DHT22;2530;47.990;7.866;2023-07-31T10:33:38;21.50;99.90
5023;DHT22;2530;47.990;7.866;2023-07-31T10:36:19;21.90;99.90
5023;DHT22;2530;47.990;7.866;2023-07-31T10:38:45;21.90;99.90
5023;DHT22;2530;47.990;7.866;2023-07-31T10:41:11;22.00;99.90
5023;DHT22;2530;47.990;7.866;2023-07-31T10:43:37;22.90;99.90
5023;DHT22;2530;47.990;7.866;2023-07-31T10:46:12;22.50;99.90
5023;DHT22;2530;47.990;7.866;2023-07-31T10:48:39;22.10;99.90
5023;DHT22;2530;47.990;7.866;2023-07-31T10:51:08;22.30;99.90
5023;DHT22;2530;47.990;7.866;2023-07-31T10:53:35;22.00;99.90
5023;DHT22;2530;47.990;7.866;2023-07-31T10:56:03;22.30;99.90
5023;DHT22;2530;47.990;7.866;2023-07-31T10:58:30;22.10;99.90
5023;DHT22;2530;47.990;7.866;2023-07-31T11:01:02;21.90;99.90
5023;DHT22;2530;47.990;7.866;2023-07-31T11:03:47;22.10;99.90
5023;DHT22;2530;47.990;7.866;2023-07-31T11:06:15;21.30;99.90
5023;DHT22;2530;47.990;7.866;2023-07-31T11:08:43;22.20;99.90
5023;DHT22;2530;47.990;7.866;2023-07-31T11:11:13;22.20;99.90
5023;DHT22;2530;47.990;7.866;2023-07-31T11:13:45;22.10;99.90
5023;DHT22;2530;47.990;7.866;2023-07-31T11:16:12;22.10;99.90
5023;DHT22;2530;47.990;7.866;2023-07-31T11:18:42;22.10;99.90
5023;DHT22;2530;47.990;7.866;2023-07-31T11:21:19;22.10;99.90
5023;DHT22;2530;47.990;7.866;2023-07-31T11:23:50;22.10;99.90
5023;DHT22;2530;47.990;7.866;2023-07-31T11:26:17;22.00;99.90
5023;DHT22;2530;47.990;7.866;2023-07-31T11:28:43;22.00;99.90
5023;DHT22;2530;47.990;7.866;2023-07-31T11:31:11;22.10;99.90
5023;DHT22;2530;47.990;7.866;2023-07-31T11:33:37;22.50;99.90
5023;DHT22;2530;47.990;7.866;2023-07-31T11:36:02;22.60;99.90
5023;DHT22;2530;47.990;7.866;2023-07-31T11:40:59;21.50;99.90
5023;DHT22;2530;47.990;7.866;2023-07-31T11:43:25;22.20;99.90
5023;DHT22;2530;47.990;7.866;2023-07-31T11:45:54;22.00;99.90
5023;DHT22;2530;47.990;7.866;2023-07-31T11:48:24;22.30;99.90
5023;DHT22;2530;47.990;7.866;2023-07-31T11:50:53;22.20;99.90
5023;DHT22;2530;47.990;7.866;2023-07-31T11:53:26;22.30;99.90
5023;DHT22;2530;47.990;7.866;2023-07-31T11:55:54;22.40;99.90
5023;DHT22;2530;47.990;7.866;2023-07-31T11:58:21;22.50;99.90
5023;DHT22;2530;47.990;7.866;2023-07-31T12:00:47;23.10;99.90
5023;DHT22;2530;47.990;7.866;2023-07-31T12:03:13;23.50;99.90
5023;DHT22;2530;47.990;7.866;2023-07-31T12:05:39;24.20;99.90
5023;DHT22;2530;47.990;7.866;2023-07-31T12:08:11;25.00;99.90
5023;DHT22;2530;47.990;7.866;2023-07-31T12:10:37;25.20;99.90
5023;DHT22;2530;47.990;7.866;2023-07-31T12:13:11;24.80;99.90
5023;DHT22;2530;47.990;7.866;2023-07-31T12:15:43;24.80;99.90
5023;DHT22;2530;47.990;7.866;2023-07-31T12:18:14;25.10;99.90
5023;DHT22;2530;47.990;7.866;2023-07-31T12:20:57;25.10;99.90
5023;DHT22;2530;47.990;7.866;2023-07-31T12:23:26;24.60;99.90
5023;DHT22;2530;47.990;7.866;2023-07-31T12:28:26;24.70;99.90
5023;DHT22;2530;47.990;7.866;2023-07-31T12:30:57;24.70;99.90
5023;DHT22;2530;47.990;7.866;2023-07-31T12:33:23;24.60;99.90
5023;DHT22;2530;47.990;7.866;2023-07-31T12:35:49;24.60;99.90
5023;DHT22;2530;47.990;7.866;2023-07-31T12:38:14;24.90;99.90
5023;DHT22;2530;47.990;7.866;2023-07-31T12:40:41;25.00;99.90
5023;DHT22;2530;47.990;7.866;2023-07-31T12:43:08;25.00;99.90
5023;DHT22;2530;47.990;7.866;2023-07-31T12:45:35;24.70;99.90
5023;DHT22;2530;47.990;7.866;2023-07-31T12:48:01;25.30;99.90
5023;DHT22;2530;47.990;7.866;2023-07-31T12:50:27;25.10;99.90
5023;DHT22;2530;47.990;7.866;2023-07-31T12:52:56;25.20;99.90
5023;DHT22;2530;47.990;7.866;2023-07-31T12:55:22;24.90;99.90
5023;DHT22;2530;47.990;7.866;2023-07-31T12:57:48;25.40;99.90
5023;DHT22;2530;47.990;7.866;2023-07-31T13:00:14;25.80;99.90
5023;DHT22;2530;47.990;7.866;2023-07-31T13:02:40;26.00;99.90
5023;DHT22;2530;47.990;7.866;2023-07-31T13:05:06;25.80;99.90
5023;DHT22;2530;47.990;7.866;2023-07-31T13:07:31;25.70;99.90
5023;DHT22;2530;47.990;7.866;2023-07-31T13:09:57;26.00;99.90
5023;DHT22;2530;47.990;7.866;2023-07-31T13:12:23;26.00;99.90
5023;DHT22;2530;47.990;7.866;2023-07-31T13:14:48;26.50;99.90
5023;DHT22;2530;47.990;7.866;2023-07-31T13:17:14;25.70;99.90
5023;DHT22;2530;47.990;7.866;2023-07-31T13:19:39;25.80;99.90
5023;DHT22;2530;47.990;7.866;2023-07-31T13:22:05;25.80;99.90
5023;DHT22;2530;47.990;7.866;2023-07-31T13:24:30;25.40;99.90
5023;DHT22;2530;47.990;7.866;2023-07-31T13:26:57;24.60;99.90
5023;DHT22;2530;47.990;7.866;2023-07-31T13:29:22;24.70;99.90
5023;DHT22;2530;47.990;7.866;2023-07-31T13:31:49;24.70;99.90
5023;DHT22;2530;47.990;7.866;2023-07-31T13:34:14;25.10;99.90
5023;DHT22;2530;47.990;7.866;2023-07-31T13:36:40;25.50;99.90
5023;DHT22;2530;47.990;7.866;2023-07-31T13:39:06;25.20;99.90
5023;DHT22;2530;47.990;7.866;2023-07-31T13:41:32;25.10;99.90
5023;DHT22;2530;47.990;7.866;2023-07-31T13:43:58;25.20;99.90
5023;DHT22;2530;47.990;7.866;2023-07-31T13:46:23;25.00;99.90
5023;DHT22;2530;47.990;7.866;2023-07-31T13:48:50;25.00;99.90
5023;DHT22;2530;47.990;7.866;2023-07-31T13:51:16;24.80;99.90
5023;DHT22;2530;47.990;7.866;2023-07-31T13:53:41;24.90;99.90
5023;DHT22;2530;47.990;7.866;2023-07-31T13:56:07;25.00;99.90
5023;DHT22;2530;47.990;7.866;2023-07-31T13:58:33;25.00;99.90
5023;DHT22;2530;47.990;7.866;2023-07-31T14:00:58;24.90;99.90
5023;DHT22;2530;47.990;7.866;2023-07-31T14:03:24;24.70;99.90
5023;DHT22;2530;47.990;7.866;2023-07-31T14:05:51;24.70;99.90
5023;DHT22;2530;47.990;7.866;2023-07-31T14:08:17;24.60;99.90
5023;DHT22;2530;47.990;7.866;2023-07-31T14:10:42;24.80;99.90
5023;DHT22;2530;47.990;7.866;2023-07-31T14:13:08;25.00;99.90
5023;DHT22;2530;47.990;7.866;2023-07-31T14:15:33;24.80;99.90
5023;DHT22;2530;47.990;7.866;2023-07-31T14:17:59;25.00;99.90
5023;DHT22;2530;47.990;7.866;2023-07-31T14:20:25;24.90;99.90
5023;DHT22;2530;47.990;7.866;2023-07-31T14:22:50;24.90;99.90
5023;DHT22;2530;47.990;7.866;2023-07-31T14:25:16;24.70;99.90
5023;DHT22;2530;47.990;7.866;2023-07-31T14:27:41;24.50;99.90
5023;DHT22;2530;47.990;7.866;2023-07-31T14:30:07;24.60;99.90
5023;DHT22;2530;47.990;7.866;2023-07-31T14:32:33;24.80;99.90
5023;DHT22;2530;47.990;7.866;2023-07-31T14:34:58;24.90;99.90
5023;DHT22;2530;47.990;7.866;2023-07-31T14:37:26;25.00;99.90
5023;DHT22;2530;47.990;7.866;2023-07-31T14:39:52;25.20;99.90
5023;DHT22;2530;47.990;7.866;2023-07-31T14:42:18;25.30;99.90
5023;DHT22;2530;47.990;7.866;2023-07-31T14:44:44;25.10;99.90
5023;DHT22;2530;47.990;7.866;2023-07-31T14:47:12;25.20;99.90
5023;DHT22;2530;47.990;7.866;2023-07-31T14:49:37;25.30;99.90
5023;DHT22;2530;47.990;7.866;2023-07-31T14:52:03;25.20;99.90
5023;DHT22;2530;47.990;7.866;2023-07-31T14:54:29;25.10;99.90
5023;DHT22;2530;47.990;7.866;2023-07-31T14:56:55;25.00;99.90
5023;DHT22;2530;47.990;7.866;2023-07-31T14:59:20;25.00;99.90
5023;DHT22;2530;47.990;7.866;2023-07-31T15:01:46;24.90;99.90
5023;DHT22;2530;47.990;7.866;2023-07-31T15:04:11;25.00;99.90
5023;DHT22;2530;47.990;7.866;2023-07-31T15:06:37;25.00;99.90
5023;DHT22;2530;47.990;7.866;2023-07-31T15:09:02;24.90;99.90
5023;DHT22;2530;47.990;7.866;2023-07-31T15:11:28;24.90;99.90
5023;DHT22;2530;47.990;7.866;2023-07-31T15:13:53;25.10;99.90
5023;DHT22;2530;47.990;7.866;2023-07-31T15:16:19;25.10;99.90
5023;DHT22;2530;47.990;7.866;2023-07-31T15:18:47;25.00;99.90
5023;DHT22;2530;47.990;7.866;2023-07-31T15:21:12;24.80;99.90
5023;DHT22;2530;47.990;7.866;2023-07-31T15:23:38;25.00;99.90
5023;DHT22;2530;47.990;7.866;2023-07-31T15:26:04;25.10;99.90
5023;DHT22;2530;47.990;7.866;2023-07-31T15:28:31;25.00;99.90
5023;DHT22;2530;47.990;7.866;2023-07-31T15:30:56;24.90;99.90
5023;DHT22;2530;47.990;7.866;2023-07-31T15:33:22;24.70;99.90
5023;DHT22;2530;47.990;7.866;2023-07-31T15:35:47;24.80;99.90
5023;DHT22;2530;47.990;7.866;2023-07-31T15:38:13;24.80;99.90
5023;DHT22;2530;47.990;7.866;2023-07-31T15:40:39;24.80;99.90
5023;DHT22;2530;47.990;7.866;2023-07-31T15:43:04;24.70;99.90
5023;DHT22;2530;47.990;7.866;2023-07-31T15:45:30;24.60;99.90
5023;DHT22;2530;47.990;7.866;2023-07-31T15:47:55;24.60;99.90
5023;DHT22;2530;47.990;7.866;2023-07-31T15:50:21;24.80;99.90
5023;DHT22;2530;47.990;7.866;2023-07-31T15:52:46;24.70;99.90
5023;DHT22;2530;47.990;7.866;2023-07-31T15:55:12;24.60;99.90
5023;DHT22;2530;47.990;7.866;2023-07-31T15:57:37;24.50;99.90
5023;DHT22;2530;47.990;7.866;2023-07-31T16:00:03;24.50;99.90
5023;DHT22;2530;47.990;7.866;2023-07-31T16:02:29;24.30;99.90
5023;DHT22;2530;47.990;7.866;2023-07-31T16:04:54;24.20;99.90
5023;DHT22;2530;47.990;7.866;2023-07-31T16:07:20;24.10;99.90